Time;durP1;ratioP1;P1;durP2;ratioP2;P2;SDS_P1;SDS_P2;PMS_P1;PMS_P2;Temp;Humidity;BMP_temperature;BMP_pressure;BME280_temperature;BME280_humidity;BME280_pressure;Samples;Min_cycle;Max_cycle;Signal;HPM_P1;HPM_P2
2023/01/10 00:01:16;;;;;;;4.97;1.98;;;7.90;99.90;;;7.76;100.00;100644.69;5161253;28;20113;-71
2023/01/10 00:03:48;;;;;;;4.63;2.30;;;7.90;99.90;;;7.79;100.00;100657.78;5163480;28;20412;-72
2023/01/10 00:06:22;;;;;;;4.43;2.22;;;7.90;99.90;;;7.79;100.00;100657.78;5163318;28;20046;-73
2023/01/10 00:08:56;;;;;;;5.50;1.83;;;7.90;99.90;;;7.80;100.00;100663.88;5163057;28;20120;-73
2023/01/10 00:14:18;;;;;;;4.03;1.80;;;7.90;99.90;;;7.84;100.00;100676.16;5162374;28;20137;-72
2023/01/10 00:16:50;;;;;;;6.05;1.85;;;7.90;99.90;;;7.85;100.00;100684.00;5162971;28;20043;-72
2023/01/10 00:19:22;;;;;;;4.18;1.63;;;8.00;99.90;;;7.87;100.00;100687.56;5145693;28;20431;-72
2023/01/10 00:22:11;;;;;;;3.97;1.88;;;8.00;99.90;;;7.88;100.00;100704.00;5145729;28;20085;-73
2023/01/10 00:24:43;;;;;;;4.43;1.73;;;8.00;99.90;;;7.86;100.00;100711.72;5163595;28;20503;-72
2023/01/10 00:27:19;;;;;;;4.40;1.60;;;7.90;99.90;;;7.88;100.00;100720.47;5163245;28;20042;-73
2023/01/10 00:29:52;;;;;;;5.72;2.08;;;8.00;99.90;;;7.90;100.00;100728.34;5145414;28;20525;-72
2023/01/10 00:32:25;;;;;;;6.93;2.05;;;8.00;99.90;;;7.81;100.00;100739.19;5163335;28;20050;-72
2023/01/10 00:34:57;;;;;;;7.15;1.63;;;8.00;99.90;;;7.74;100.00;100737.13;5154062;28;20105;-73
2023/01/10 00:37:31;;;;;;;4.32;1.33;;;7.90;99.90;;;7.74;100.00;100751.81;5163163;28;20050;-73
2023/01/10 00:40:06;;;;;;;3.20;1.50;;;7.90;99.90;;;7.77;100.00;100755.47;5162764;28;20046;-72
2023/01/10 00:45:28;;;;;;;2.78;1.27;;;7.90;99.90;;;7.80;100.00;100773.75;5163402;28;19921;-73
2023/01/10 00:48:01;;;;;;;4.57;1.40;;;7.90;99.90;;;7.80;100.00;100772.84;5163260;28;20053;-72
2023/01/10 00:50:33;;;;;;;3.70;1.45;;;7.90;99.90;;;7.82;100.00;100777.31;5161384;28;20054;-73
2023/01/10 00:53:07;;;;;;;4.50;1.33;;;7.90;99.90;;;7.81;100.00;100791.09;5162979;28;20053;-72
2023/01/10 00:55:39;;;;;;;4.32;1.23;;;7.90;99.90;;;7.83;100.00;100791.19;5163430;28;20046;-72
2023/01/10 00:58:13;;;;;;;5.88;2.40;;;7.90;99.90;;;7.81;100.00;100790.19;5162685;28;20042;-72
2023/01/10 01:00:48;;;;;;;5.90;2.38;;;7.90;99.90;;;7.79;100.00;100799.63;5162855;28;20045;-73
2023/01/10 01:03:22;;;;;;;3.95;2.05;;;7.90;99.90;;;7.78;100.00;100806.53;5163536;28;20057;-72
2023/01/10 01:05:56;;;;;;;4.75;2.03;;;7.90;99.90;;;7.79;100.00;100808.31;5145796;28;20132;-73
2023/01/10 01:08:29;;;;;;;4.28;1.55;;;7.90;99.90;;;7.79;100.00;100823.88;5162848;28;20034;-72
2023/01/10 01:11:02;;;;;;;5.93;1.65;;;7.90;99.90;;;7.80;100.00;100822.16;5145141;28;20108;-73
2023/01/10 01:13:35;;;;;;;3.92;1.30;;;7.90;99.90;;;7.79;100.00;100826.47;5147219;28;20101;-73
2023/01/10 01:16:07;;;;;;;6.75;1.33;;;7.90;99.90;;;7.81;100.00;100834.31;5166794;28;20071;-73
2023/01/10 01:18:40;;;;;;;4.72;1.35;;;7.90;99.90;;;7.79;100.00;100839.44;5166292;28;20442;-73
2023/01/10 01:21:12;;;;;;;4.63;1.25;;;7.90;99.90;;;7.80;100.00;100836.03;5166416;28;20089;-73
2023/01/10 01:23:45;;;;;;;2.97;1.30;;;7.90;99.90;;;7.81;100.00;100837.78;5166188;28;20169;-73
2023/01/10 01:26:17;;;;;;;3.45;1.23;;;7.90;99.90;;;7.81;100.00;100836.91;5166447;28;20046;-72
2023/01/10 01:28:50;;;;;;;4.50;1.30;;;7.90;99.90;;;7.81;100.00;100842.09;5166027;28;20540;-73
2023/01/10 01:31:22;;;;;;;3.38;1.27;;;7.90;99.90;;;7.81;100.00;100860.28;5166235;28;20592;-73
2023/01/10 01:33:54;;;;;;;2.25;1.15;;;7.90;99.90;;;7.80;100.00;100858.50;5166269;28;20077;-72
2023/01/10 01:36:26;;;;;;;5.45;1.42;;;7.90;99.90;;;7.79;100.00;100869.69;5166191;28;20043;-72
2023/01/10 01:39:00;;;;;;;4.10;1.90;;;7.90;99.90;;;7.79;100.00;100864.50;5165322;28;20078;-73
2023/01/10 01:44:21;;;;;;;3.55;1.33;;;7.90;99.90;;;7.79;100.00;100880.97;5165871;28;20049;-72
2023/01/10 01:47:03;;;;;;;3.25;1.25;;;7.90;99.90;;;7.81;100.00;100878.44;5165962;28;20039;-72
2023/01/10 01:49:39;;;;;;;3.47;1.15;;;7.90;99.90;;;7.82;100.00;100886.31;5165573;28;20149;-72
2023/01/10 01:52:21;;;;;;;2.67;1.05;;;7.90;99.90;;;7.80;100.00;100893.13;5148234;28;20054;-73
2023/01/10 01:54:59;;;;;;;3.60;1.20;;;7.90;99.90;;;7.78;100.00;100894.75;5164603;28;20093;-73
2023/01/10 01:57:33;;;;;;;2.42;1.60;;;7.90;99.90;;;7.78;100.00;100899.06;5147484;28;20073;-73
2023/01/10 02:00:09;;;;;;;4.07;1.35;;;7.90;99.90;;;7.76;100.00;100896.41;5164663;28;20042;-72
2023/01/10 02:02:49;;;;;;;7.05;1.38;;;7.90;99.90;;;7.75;100.00;100894.59;5156551;28;20042;-73
2023/01/10 02:05:23;;;;;;;4.85;1.40;;;7.90;99.90;;;7.75;100.00;100902.38;5153127;28;20045;-73
2023/01/10 02:07:58;;;;;;;4.65;1.42;;;7.90;99.90;;;7.73;100.00;100911.81;5144973;28;20081;-73
2023/01/10 02:10:39;;;;;;;4.63;1.58;;;7.90;99.90;;;7.74;100.00;100903.22;5128064;28;20074;-72
2023/01/10 02:13:15;;;;;;;5.90;1.35;;;7.80;99.90;;;7.72;100.00;100915.22;5152729;28;20492;-73
2023/01/10 02:15:47;;;;;;;3.58;1.52;;;7.80;99.90;;;7.71;100.00;100913.47;5159271;28;20062;-73
2023/01/10 02:18:21;;;;;;;5.10;2.40;;;7.80;99.90;;;7.68;100.00;100913.28;5142719;28;20100;-73
2023/01/10 02:21:15;;;;;;;6.75;2.45;;;7.80;99.90;;;7.70;100.00;100916.88;5163604;28;20054;-72
2023/01/10 02:24:06;;;;;;;;;;;7.80;99.90;;;7.70;100.00;100922.06;5164726;28;20043;-72
2023/01/10 02:27:10;;;;;;;4.15;1.60;;;7.80;99.90;;;7.70;100.00;100927.25;5154426;28;19922;-73
2023/01/10 02:30:38;;;;;;;4.50;1.80;;;7.80;99.90;;;7.70;100.00;100929.84;5143579;28;20688;-73
2023/01/10 02:33:19;;;;;;;6.20;1.73;;;7.80;99.90;;;7.68;100.00;100936.63;5145188;28;20061;-73
2023/01/10 02:36:31;;;;;;;3.33;1.42;;;7.80;99.90;;;7.66;100.00;100927.91;5146804;28;20656;-73
2023/01/10 02:39:11;;;;;;;6.60;1.42;;;7.80;99.90;;;7.66;100.00;100940.88;5153242;28;20058;-73
2023/01/10 02:41:52;;;;;;;4.70;1.48;;;7.80;99.90;;;7.67;100.00;100942.66;5143055;28;20077;-73
2023/01/10 02:44:34;;;;;;;5.25;1.52;;;7.80;99.90;;;7.66;100.00;100948.66;5152400;28;20117;-73
2023/01/10 02:47:09;;;;;;;2.80;1.08;;;7.80;99.90;;;7.68;100.00;100947.03;5141804;28;20492;-72
2023/01/10 02:49:46;;;;;;;3.22;1.17;;;7.80;99.90;;;7.69;100.00;100946.19;5148880;28;20052;-73
2023/01/10 02:52:24;;;;;;;2.38;1.23;;;7.80;99.90;;;7.68;100.00;100965.19;5156826;28;20093;-73
2023/01/10 02:55:01;;;;;;;4.57;1.23;;;7.80;99.90;;;7.67;100.00;100958.22;5159051;28;20038;-72
2023/01/10 02:57:48;;;;;;;5.03;1.70;;;7.80;99.90;;;7.67;100.00;100957.34;5159890;28;20130;-73
2023/01/10 03:00:45;;;;;;;2.78;1.50;;;7.80;99.90;;;7.65;100.00;100957.25;5153905;28;20042;-74
2023/01/10 03:03:32;;;;;;;3.53;1.42;;;7.80;99.90;;;7.64;100.00;100958.09;5143073;28;20481;-72
2023/01/10 03:06:21;;;;;;;4.35;1.50;;;7.80;99.90;;;7.67;100.00;100965.13;5165126;28;20046;-72
2023/01/10 03:09:03;;;;;;;3.47;1.25;;;7.80;99.90;;;7.66;100.00;100961.63;5164131;28;20077;-73
2023/01/10 03:11:39;;;;;;;3.97;1.45;;;7.70;99.90;;;7.65;100.00;100954.66;5164601;28;20069;-72
2023/01/10 03:14:19;;;;;;;2.90;1.23;;;7.80;99.90;;;7.65;100.00;100965.06;5146970;28;20055;-73
2023/01/10 03:16:56;;;;;;;3.13;1.17;;;7.80;99.90;;;7.65;100.00;100974.53;5164202;28;20073;-73
2023/01/10 03:19:34;;;;;;;4.70;1.33;;;7.80;99.90;;;7.62;100.00;100976.16;5146607;28;20054;-73
2023/01/10 03:22:10;;;;;;;5.20;1.20;;;7.70;99.90;;;7.62;100.00;100976.16;5164139;28;20049;-73
2023/01/10 03:24:46;;;;;;;3.33;1.23;;;7.70;99.90;;;7.62;100.00;100980.44;5164100;28;20038;-73
2023/01/10 03:27:25;;;;;;;3.83;1.05;;;7.70;99.90;;;7.61;100.00;100978.66;5163730;28;20050;-72
2023/01/10 03:30:03;;;;;;;3.17;1.10;;;7.70;99.90;;;7.62;100.00;100985.63;5146087;28;20050;-72
2023/01/10 03:32:35;;;;;;;3.65;1.05;;;7.70;99.90;;;7.62;100.00;100996.00;5163519;28;20058;-73
2023/01/10 03:35:09;;;;;;;8.25;1.38;;;7.70;99.90;;;7.58;100.00;100997.59;5163402;28;20038;-72
2023/01/10 03:37:52;;;;;;;4.13;1.20;;;7.70;99.90;;;7.58;100.00;100999.28;5146308;28;20078;-72
2023/01/10 03:40:36;;;;;;;4.72;1.27;;;7.70;99.90;;;7.56;100.00;100991.44;5163377;28;20431;-72
2023/01/10 03:46:12;;;;;;;3.97;1.38;;;7.70;99.90;;;7.56;100.00;101000.91;5164143;28;20050;-73
2023/01/10 03:48:48;;;;;;;3.70;1.25;;;7.70;99.90;;;7.53;100.00;101012.03;5163800;28;20050;-73
2023/01/10 03:51:20;;;;;;;3.38;1.20;;;7.70;99.90;;;7.51;100.00;101013.66;5145990;28;20054;-73
2023/01/10 03:53:54;;;;;;;5.47;1.52;;;7.60;99.90;;;7.47;100.00;101011.72;5163631;28;20054;-73
2023/01/10 03:56:26;;;;;;;5.63;2.15;;;7.60;99.90;;;7.45;100.00;101022.84;5164132;28;20046;-73
2023/01/10 03:58:59;;;;;;;11.98;4.15;;;7.60;99.90;;;7.44;100.00;101026.25;5163431;28;20407;-72
2023/01/10 04:01:32;;;;;;;12.65;4.32;;;7.60;99.90;;;7.43;100.00;101040.00;5163748;28;20060;-73
2023/01/10 04:04:05;;;;;;;9.13;3.13;;;7.60;99.90;;;7.41;100.00;101041.63;5146440;28;20081;-73
2023/01/10 04:06:37;;;;;;;7.75;2.72;;;7.50;99.90;;;7.40;100.00;101045.03;5163722;28;20049;-73
2023/01/10 04:09:11;;;;;;;5.65;1.98;;;7.50;99.90;;;7.37;100.00;101052.66;5163265;28;20038;-72
2023/01/10 04:11:43;;;;;;;7.78;2.10;;;7.50;99.90;;;7.38;100.00;101052.75;5163877;28;20042;-72
2023/01/10 04:14:15;;;;;;;7.07;1.83;;;7.50;99.90;;;7.39;100.00;101058.81;5163482;28;20053;-72
2023/01/10 04:16:47;;;;;;;10.40;2.20;;;7.50;99.90;;;7.39;100.00;101058.81;5163635;28;20046;-72
2023/01/10 04:19:20;;;;;;;7.07;1.90;;;7.50;99.90;;;7.39;100.00;101067.50;5145990;28;20054;-73
2023/01/10 04:21:52;;;;;;;5.07;1.70;;;7.50;99.90;;;7.41;100.00;101067.56;5164096;28;20050;-72
2023/01/10 04:24:26;;;;;;;8.40;2.00;;;7.60;99.90;;;7.41;100.00;101072.75;5164242;28;20349;-72
2023/01/10 04:26:59;;;;;;;5.53;1.40;;;7.50;99.90;;;7.39;100.00;101087.34;5164064;28;20061;-72
2023/01/10 04:29:32;;;;;;;5.38;1.42;;;7.50;99.90;;;7.38;100.00;101085.59;5163952;28;20043;-72
2023/01/10 04:32:04;;;;;;;4.53;1.20;;;7.50;99.90;;;7.39;100.00;101084.75;5163899;28;20508;-72
2023/01/10 04:34:37;;;;;;;5.28;1.65;;;7.50;99.90;;;7.39;100.00;101082.19;5163905;28;20046;-72
2023/01/10 04:37:09;;;;;;;6.05;1.52;;;7.50;99.90;;;7.38;100.00;101094.25;5163640;28;20042;-72
2023/01/10 04:39:43;;;;;;;3.67;1.33;;;7.50;99.90;;;7.35;100.00;101087.19;5145810;28;20042;-72
2023/01/10 04:42:16;;;;;;;4.10;1.40;;;7.50;99.90;;;7.33;100.00;101096.59;5164267;28;20045;-72
2023/01/10 04:44:49;;;;;;;7.75;1.73;;;7.50;99.90;;;7.34;100.00;101102.66;5164007;28;20038;-72
2023/01/10 04:47:21;;;;;;;3.40;1.55;;;7.50;99.90;;;7.32;100.00;101105.19;5147747;28;20119;-72
2023/01/10 04:49:53;;;;;;;5.93;1.77;;;7.50;99.90;;;7.29;100.00;101099.81;5149358;28;20097;-73
2023/01/10 04:52:27;;;;;;;5.45;1.40;;;7.40;99.90;;;7.25;100.00;101108.28;5167872;28;20046;-72
2023/01/10 04:55:00;;;;;;;4.32;1.63;;;7.40;99.90;;;7.22;100.00;101108.09;5167078;28;20046;-71
2023/01/10 04:57:32;;;;;;;3.67;1.38;;;7.40;99.90;;;7.20;100.00;101112.31;5156909;28;20053;-72
2023/01/10 05:00:07;;;;;;;3.63;1.25;;;7.30;99.90;;;7.18;100.00;101105.28;5187138;28;20068;-73
2023/01/10 05:02:42;;;;;;;3.08;1.23;;;7.30;99.90;;;7.17;100.00;101108.66;5169705;28;20165;-73
2023/01/10 05:05:14;;;;;;;;;;;7.30;99.90;;;7.14;100.00;101108.50;5188038;28;20717;-72
2023/01/10 05:07:47;;;;;;;4.88;1.25;;;7.30;99.90;;;7.12;100.00;101111.03;5169626;28;20225;-73
2023/01/10 05:10:21;;;;;;;6.00;1.52;;;7.30;99.90;;;7.09;100.00;101113.44;5186647;28;20578;-72
2023/01/10 05:12:53;;;;;;;3.83;1.30;;;7.20;99.90;;;7.07;100.00;101122.84;5186871;28;20379;-73
2023/01/10 05:15:25;;;;;;;5.45;1.35;;;7.20;99.90;;;7.10;100.00;101122.09;5187014;28;20449;-72
2023/01/10 05:18:01;;;;;;;3.63;1.13;;;7.20;99.90;;;7.14;100.00;101124.94;5187312;28;20048;-73
2023/01/10 05:20:33;;;;;;;4.13;1.42;;;7.30;99.90;;;7.16;100.00;101120.72;5169451;28;20061;-72
2023/01/10 05:23:05;;;;;;;4.45;1.23;;;7.30;99.90;;;7.16;100.00;101133.69;5186777;28;20419;-72
2023/01/10 05:25:40;;;;;;;2.97;1.08;;;7.30;99.90;;;7.17;100.00;101135.50;5186951;28;20442;-73
2023/01/10 05:28:12;;;;;;;6.85;1.40;;;7.30;99.90;;;7.19;100.00;101133.88;5187361;28;20038;-73
2023/01/10 05:30:52;;;;;;;6.53;1.52;;;7.30;99.90;;;7.18;100.00;101137.28;5186574;28;20037;-73
2023/01/10 05:33:24;;;;;;;8.13;1.83;;;7.40;99.90;;;7.19;100.00;101148.53;5156544;28;20064;-73
2023/01/10 05:35:56;;;;;;;6.07;1.75;;;7.30;99.90;;;7.19;100.00;101141.66;5146909;28;20050;-72
2023/01/10 05:38:29;;;;;;;6.45;1.70;;;7.40;99.90;;;7.16;100.00;101131.09;5129311;28;20420;-73
2023/01/10 05:41:02;;;;;;;5.65;1.60;;;7.30;99.90;;;7.15;100.00;101139.69;5129690;28;20409;-73
2023/01/10 05:43:34;;;;;;;5.15;1.48;;;7.30;99.90;;;7.14;100.00;101135.31;5146183;28;20061;-72
2023/01/10 05:46:07;;;;;;;7.47;1.70;;;7.30;99.90;;;7.14;100.00;101131.84;5137008;28;20039;-73
2023/01/10 05:48:39;;;;;;;5.07;1.63;;;7.30;99.90;;;7.15;100.00;101144.00;5165874;28;20077;-73
2023/01/10 05:51:11;;;;;;;5.75;1.70;;;7.30;99.90;;;7.15;100.00;101154.38;5166016;28;20057;-73
2023/01/10 05:53:44;;;;;;;3.17;1.48;;;7.30;99.90;;;7.18;100.00;101168.41;5166152;28;20046;-73
2023/01/10 05:56:17;;;;;;;8.45;1.80;;;7.40;99.90;;;7.20;100.00;101166.78;5165895;28;20054;-72
2023/01/10 05:58:49;;;;;;;8.50;1.83;;;7.40;99.90;;;7.18;100.00;101167.50;5161766;23;20053;-70
2023/01/10 06:01:21;;;;;;;8.85;1.73;;;7.30;99.90;;;7.16;100.00;101164.81;5130118;28;20066;-71
2023/01/10 06:03:54;;;;;;;7.18;1.50;;;7.30;99.90;;;7.17;100.00;101157.91;5153827;28;20503;-70
2023/01/10 06:06:26;;;;;;;3.00;1.65;;;7.30;99.90;;;7.14;100.00;101158.66;5145722;28;20082;-71
2023/01/10 06:08:58;;;;;;;3.17;1.27;;;7.30;99.90;;;7.14;100.00;101165.53;5145766;28;20045;-71
2023/01/10 06:11:35;;;;;;;6.70;1.55;;;7.30;99.90;;;7.12;100.00;101181.03;5144005;28;20061;-71
2023/01/10 06:14:07;;;;;;;4.50;1.52;;;7.30;99.90;;;7.11;100.00;101186.09;5128116;28;20050;-72
2023/01/10 06:16:40;;;;;;;4.50;1.60;;;7.30;99.90;;;7.07;100.00;101193.72;5145444;28;20495;-71
2023/01/10 06:19:12;;;;;;;4.63;1.50;;;7.30;99.90;;;7.05;100.00;101189.28;5145085;28;20057;-71
2023/01/10 06:21:44;;;;;;;5.55;1.92;;;7.20;99.90;;;7.04;100.00;101205.59;5144552;28;20047;-71
2023/01/10 06:24:17;;;;;;;5.70;1.50;;;7.20;99.90;;;7.04;100.00;101215.97;5145325;28;20504;-73
2023/01/10 06:26:50;;;;;;;3.85;1.45;;;7.20;99.90;;;7.02;100.00;101212.41;5145262;28;20038;-71
2023/01/10 06:29:23;;;;;;;4.95;1.77;;;7.20;99.90;;;7.04;100.00;101226.34;5144142;28;20042;-71
2023/01/10 06:31:56;;;;;;;5.07;1.92;;;7.20;99.90;;;7.04;100.00;101224.69;5128075;28;20046;-70
2023/01/10 06:34:28;;;;;;;5.57;1.50;;;7.20;99.90;;;7.06;100.00;101219.56;5145173;28;20063;-71
2023/01/10 06:37:00;;;;;;;4.57;1.60;;;7.20;99.90;;;7.07;100.00;101216.16;5143786;28;20061;-71
2023/01/10 06:39:32;;;;;;;5.80;1.60;;;7.20;99.90;;;7.13;100.00;101231.16;5144848;28;20053;-72
2023/01/10 06:42:05;;;;;;;4.80;1.73;;;7.20;99.90;;;7.14;100.00;101243.31;5145191;28;20047;-71
2023/01/10 06:44:37;;;;;;;4.28;1.70;;;7.30;99.90;;;7.16;100.00;101247.78;5144789;28;20046;-71
2023/01/10 06:47:09;;;;;;;6.75;1.92;;;7.30;99.90;;;7.21;100.00;101251.53;5145071;28;20421;-72
2023/01/10 06:49:41;;;;;;;6.40;1.60;;;7.30;99.90;;;7.22;100.00;101242.94;5144638;28;20050;-72
2023/01/10 06:52:14;;;;;;;6.75;1.83;;;7.40;99.90;;;7.23;100.00;101247.31;5127701;28;20042;-71
2023/01/10 06:54:46;;;;;;;4.57;1.58;;;7.40;99.90;;;7.24;100.00;101241.34;5127545;28;20504;-71
2023/01/10 06:57:19;;;;;;;11.95;2.05;;;7.40;99.90;;;7.23;100.00;101242.13;5127295;28;20046;-71
2023/01/10 06:59:51;;;;;;;6.15;1.90;;;7.40;99.90;;;7.21;100.00;101243.75;5142966;28;20051;-71
2023/01/10 07:02:23;;;;;;;4.93;2.40;;;7.40;99.90;;;7.19;100.00;101253.16;5127316;28;20055;-71
2023/01/10 07:04:55;;;;;;;5.43;1.83;;;7.30;99.90;;;7.19;100.00;101263.53;5144365;28;20046;-61
2023/01/10 07:07:28;;;;;;;6.35;1.50;;;7.30;99.90;;;7.19;100.00;101266.13;5143856;28;20039;-61
2023/01/10 07:10:00;;;;;;;7.57;1.70;;;7.30;99.90;;;7.20;100.00;101262.72;5143604;28;20050;-62
2023/01/10 07:12:33;;;;;;;6.22;1.83;;;7.30;99.90;;;7.21;100.00;101266.19;5143917;28;20054;-62
2023/01/10 07:15:07;;;;;;;6.80;1.98;;;7.30;99.90;;;7.22;100.00;101263.66;5144088;28;20047;-61
2023/01/10 07:17:39;;;;;;;4.97;1.48;;;7.30;99.90;;;7.21;100.00;101274.84;5143799;28;20050;-62
2023/01/10 07:20:12;;;;;;;3.00;1.45;;;7.30;99.90;;;7.23;100.00;101275.81;5143126;28;20039;-62
2023/01/10 07:22:44;;;;;;;7.28;1.60;;;7.40;99.90;;;7.26;100.00;101283.78;5126418;28;20054;-62
2023/01/10 07:25:17;;;;;;;5.03;1.88;;;7.40;99.90;;;7.22;100.00;101279.22;5143409;28;20422;-61
2023/01/10 07:27:50;;;;;;;6.95;2.15;;;7.40;99.90;;;7.25;100.00;101276.81;5142965;28;20047;-63
2023/01/10 07:30:23;;;;;;;8.77;2.00;;;7.40;99.90;;;7.25;100.00;101278.53;5142580;28;20065;-61
2023/01/10 07:32:56;;;;;;;5.32;1.65;;;7.40;99.90;;;7.21;100.00;101287.81;5143728;28;20097;-62
2023/01/10 07:35:28;;;;;;;7.00;1.83;;;7.30;99.90;;;7.20;100.00;101306.78;5143732;28;20042;-63
2023/01/10 07:38:02;;;;;;;5.00;1.48;;;7.30;99.90;;;7.21;100.00;101302.50;5143723;28;20053;-61
2023/01/10 07:40:34;;;;;;;7.88;1.92;;;7.30;99.90;;;7.19;100.00;101302.41;5143022;28;20381;-63
2023/01/10 07:43:07;;;;;;;3.97;1.52;;;7.40;99.90;;;7.23;100.00;101317.31;5143397;28;20046;-62
2023/01/10 07:45:40;;;;;;;7.35;2.20;;;7.40;99.90;;;7.27;100.00;101321.88;5142506;28;20319;-61
2023/01/10 07:48:12;;;;;;;9.60;2.40;;;7.40;99.90;;;7.28;100.00;101315.88;5142333;28;20527;-62
2023/01/10 07:50:45;;;;;;;10.90;2.42;;;7.40;99.90;;;7.27;100.00;101321.88;5142917;28;20421;-62
2023/01/10 07:53:17;;;;;;;10.23;2.00;;;7.40;99.90;;;7.29;100.00;101324.56;5143110;28;20043;-61
2023/01/10 07:55:49;;;;;;;8.50;2.35;;;7.40;99.90;;;7.27;100.00;101324.47;5143548;28;20051;-61
2023/01/10 07:58:22;;;;;;;6.57;1.83;;;7.40;99.90;;;7.27;100.00;101318.41;5143169;28;20126;-61
2023/01/10 08:00:58;;;;;;;6.30;1.55;;;7.40;99.90;;;7.28;100.00;101326.25;5142830;28;20062;-62
2023/01/10 08:03:31;;;;;;;9.35;1.83;;;7.40;99.90;;;7.30;100.00;101327.25;5143092;28;20057;-61
2023/01/10 08:06:06;;;;;;;10.77;2.33;;;7.40;99.90;;;7.33;100.00;101335.19;5143039;28;20130;-61
2023/01/10 08:08:38;;;;;;;8.77;1.70;;;7.40;99.90;;;7.35;100.00;101338.75;5143186;28;20047;-62
2023/01/10 08:11:10;;;;;;;5.72;1.80;;;7.50;99.90;;;7.35;100.00;101346.53;5142764;28;20508;-62
2023/01/10 08:13:44;;;;;;;8.63;1.80;;;7.50;99.90;;;7.37;100.00;101346.66;5143504;28;20141;-62
2023/01/10 08:16:16;;;;;;;9.63;1.95;;;7.50;99.90;;;7.38;100.00;101347.53;5142947;28;20047;-57
2023/01/10 08:18:48;;;;;;;6.88;1.73;;;7.50;99.90;;;7.38;100.00;101347.53;5142515;28;20130;-60
2023/01/10 08:21:20;;;;;;;9.18;2.03;;;7.50;99.90;;;7.38;100.00;101351.03;5143223;28;20531;-61
2023/01/10 08:23:54;;;;;;;3.65;1.45;;;7.50;99.90;;;7.40;100.00;101353.69;5147405;28;20122;-61
2023/01/10 08:26:26;;;;;;;6.63;1.42;;;7.50;99.90;;;7.41;100.00;101363.25;5142050;28;20043;-60
2023/01/10 08:29:00;;;;;;;6.32;1.67;;;7.50;99.90;;;7.43;100.00;101359.03;5136768;28;20043;-62
2023/01/10 08:31:32;;;;;;;4.68;1.60;;;7.50;99.90;;;7.82;100.00;101363.88;5146921;28;20046;-62
2023/01/10 08:34:04;;;;;;;6.50;1.45;;;8.00;99.90;;;7.96;100.00;101366.34;5146957;28;20146;-62
2023/01/10 08:36:36;;;;;;;8.63;2.20;;;8.10;99.90;;;7.89;100.00;101371.19;5147165;28;20047;-61
2023/01/10 08:39:08;;;;;;;5.50;1.60;;;8.10;99.90;;;7.80;100.00;101375.84;5145034;28;20416;-62
2023/01/10 08:41:40;;;;;;;8.70;2.00;;;8.00;99.90;;;7.74;100.00;101370.31;5146888;28;20046;-60
2023/01/10 08:44:15;;;;;;;8.65;1.60;;;7.90;99.90;;;7.67;100.00;101369.91;5129294;28;20058;-60
2023/01/10 08:46:48;;;;;;;13.48;2.13;;;7.90;99.90;;;7.62;100.00;101365.34;5146563;28;20161;-61
2023/01/10 08:49:20;;;;;;;4.88;2.05;;;7.80;99.90;;;7.63;100.00;101371.47;5146077;28;20066;-61
2023/01/10 08:51:52;;;;;;;6.35;2.05;;;7.80;99.90;;;7.65;100.00;101367.22;5139750;28;20510;-61
2023/01/10 08:54:24;;;;;;;4.97;1.70;;;7.80;99.90;;;7.69;100.00;101371.75;5144919;28;20039;-60
2023/01/10 08:56:56;;;;;;;7.15;1.70;;;7.80;99.90;;;7.75;100.00;101376.41;5139849;28;20594;-61
2023/01/10 08:59:30;;;;;;;10.73;2.00;;;7.90;99.90;;;8.39;100.00;101386.00;5131516;28;20047;-62
2023/01/10 09:02:03;;;;;;;5.78;1.95;;;8.50;99.90;;;8.51;100.00;101380.56;5143139;28;20043;-61
2023/01/10 09:04:35;;;;;;;4.00;1.63;;;8.60;99.90;;;8.45;100.00;101380.25;5145452;28;20046;-61
2023/01/10 09:07:07;;;;;;;7.32;1.85;;;8.60;99.90;;;8.34;100.00;101386.53;5145015;28;20049;-63
2023/01/10 09:09:39;;;;;;;8.02;2.13;;;8.50;99.90;;;8.61;100.00;101392.34;5144428;28;20497;-60
2023/01/10 09:15:05;;;;;;;4.90;1.30;;;8.80;99.90;;;8.51;100.00;101382.28;5145317;28;20035;-61
2023/01/10 09:17:37;;;;;;;6.30;1.90;;;8.70;99.90;;;8.41;100.00;101399.06;5145609;28;20050;-61
2023/01/10 09:20:11;;;;;;;5.90;1.50;;;8.60;99.90;;;8.33;100.00;101398.63;5145521;28;20432;-60
2023/01/10 09:22:43;;;;;;;7.50;2.17;;;8.50;99.90;;;8.28;100.00;101397.53;5145877;28;20055;-61
2023/01/10 09:25:15;;;;;;;6.85;1.63;;;8.40;99.90;;;8.22;100.00;101397.19;5145955;28;20046;-61
2023/01/10 09:27:47;;;;;;;6.68;1.38;;;8.30;99.90;;;8.17;100.00;101398.66;5146082;28;20133;-61
2023/01/10 09:30:21;;;;;;;6.07;1.90;;;8.30;99.90;;;8.14;100.00;101398.47;5145663;28;20042;-61
2023/01/10 09:32:53;;;;;;;7.40;2.08;;;8.30;99.90;;;8.18;100.00;101408.22;5144899;28;20058;-60
2023/01/10 09:35:27;;;;;;;6.85;1.90;;;8.30;99.90;;;8.19;100.00;101402.22;5145148;28;20057;-60
2023/01/10 09:38:01;;;;;;;4.05;1.58;;;8.30;99.90;;;8.20;100.00;101404.00;5145643;28;20047;-61
2023/01/10 09:40:57;;;;;;;4.55;1.50;;;8.30;99.90;;;8.21;100.00;101400.56;5145478;28;20055;-61
2023/01/10 09:43:40;;;;;;;8.30;1.85;;;8.30;99.90;;;8.23;100.00;101401.56;5145822;28;20396;-61
2023/01/10 09:46:24;;;;;;;6.18;1.52;;;8.30;99.90;;;8.28;100.00;101402.72;5145601;28;20046;-62
2023/01/10 09:49:07;;;;;;;7.05;1.33;;;8.30;99.90;;;8.37;100.00;101399.75;5145124;28;20125;-61
2023/01/10 09:51:42;;;;;;;9.43;2.10;;;8.40;99.90;;;8.48;100.00;101408.13;5128289;28;20051;-61
2023/01/10 09:54:17;;;;;;;;;;;8.50;99.90;;;8.57;100.00;101406.88;5145863;28;20047;-61
2023/01/10 09:56:50;;;;;;;7.63;1.75;;;8.60;99.90;;;8.67;100.00;101405.63;5127931;28;19944;-61
2023/01/10 09:59:25;;;;;;;8.82;1.52;;;8.60;99.90;;;8.77;100.00;101409.63;5144958;28;20050;-60
2023/01/10 10:02:07;;;;;;;5.90;1.92;;;8.70;99.90;;;8.88;100.00;101406.78;5145344;28;20077;-61
2023/01/10 10:04:41;;;;;;;5.03;1.10;;;8.80;99.90;;;8.96;100.00;101415.84;5145102;28;20142;-61
2023/01/10 10:07:16;;;;;;;9.18;1.35;;;8.90;99.90;;;9.04;100.00;101412.75;5145175;28;20444;-62
2023/01/10 10:09:48;;;;;;;4.97;1.35;;;9.00;99.90;;;9.09;100.00;101409.56;5144734;28;20130;-61
2023/01/10 10:12:31;;;;;;;7.63;1.67;;;9.00;99.90;;;9.18;100.00;101406.53;5145382;28;20043;-60
2023/01/10 10:15:18;;;;;;;8.70;1.40;;;9.10;99.90;;;9.24;100.00;101399.91;5144915;28;20069;-61
2023/01/10 10:18:05;;;;;;;8.18;1.80;;;9.20;99.90;;;9.30;98.03;101394.13;5145190;28;20050;-61
2023/01/10 10:20:51;;;;;;;8.07;1.90;;;9.30;99.90;;;9.35;98.40;101400.44;5144578;28;20043;-60
2023/01/10 10:23:44;;;;;;;7.25;1.63;;;9.30;99.90;;;9.37;98.07;101392.72;5142585;28;20051;-61
2023/01/10 10:26:24;;;;;;;6.57;1.50;;;9.30;99.90;;;10.24;100.00;101389.09;5142702;28;20047;-61
2023/01/10 10:29:36;;;;;;;8.57;2.58;;;10.30;99.90;;;11.35;100.00;101393.94;5118665;28;20047;-60
2023/01/10 10:32:30;;;;;;;7.95;1.63;;;11.50;99.90;;;11.96;100.00;101385.03;5138128;28;20106;-62
2023/01/10 10:35:08;;;;;;;;;;;12.10;99.90;;;12.16;100.00;101377.97;5145107;28;20122;-61
2023/01/10 10:37:46;;;;;;;6.78;1.83;;;12.40;99.90;;;12.23;95.38;101380.84;5136294;28;19926;-62
2023/01/10 10:40:24;;;;;;;6.55;1.80;;;12.50;99.90;;;12.02;94.18;101373.94;5138672;28;20042;-58
2023/01/10 10:42:59;;;;;;;6.55;1.60;;;12.20;99.90;;;11.96;92.33;101377.22;5136295;28;20030;-61
2023/01/10 10:45:39;;;;;;;8.45;1.80;;;12.20;99.90;;;11.76;90.96;101381.63;5126556;28;20051;-62
2023/01/10 10:48:18;;;;;;;7.70;1.42;;;11.90;99.90;;;11.55;90.05;101386.91;5126595;28;20137;-63
2023/01/10 10:51:04;;;;;;;11.18;1.85;;;11.70;99.90;;;11.31;91.59;101384.16;5144024;28;20039;-61
2023/01/10 10:53:37;;;;;;;6.38;1.60;;;11.40;99.90;;;11.35;94.27;101387.81;5124259;28;20051;-61
2023/01/10 10:56:16;;;;;;;6.47;1.50;;;11.40;99.90;;;11.40;93.51;101389.75;5143482;28;20039;-57
2023/01/10 10:58:52;;;;;;;8.77;1.55;;;11.50;99.90;;;11.40;92.66;101383.66;5142647;28;20055;-63
2023/01/10 11:01:25;;;;;;;4.53;1.23;;;11.40;99.90;;;11.38;91.80;101385.31;5126708;28;20094;-62
2023/01/10 11:04:01;;;;;;;6.30;1.30;;;11.40;99.90;;;11.45;92.80;101373.41;5144077;28;20070;-60
2023/01/10 11:06:37;;;;;;;7.10;1.42;;;11.40;99.90;;;11.53;89.92;101371.97;5144274;28;20042;-61
2023/01/10 11:09:11;;;;;;;4.10;1.13;;;11.40;99.90;;;11.48;88.54;101370.94;5142024;28;20061;-61